Terminal Aerodrome Forecast
Issued by NWS

Home | Current Version | Previous Version | Text Only | Print | Product List | Glossary On
Versions: 1 2 3 4 5 6 7 8 9 10 11 12 13 14 15 16 17 18 19 20 21 22 23 24 25
314
FTUS43 KLOT 232103 AAA
TAFMDW
TAF AMD
KMDW 232103Z 2321/2424 04013KT P6SM BKN120
     FM240100 04011KT P6SM BKN050
     FM240500 07010KT P6SM OVC030
     FM240800 04008KT P6SM VCSH SCT008 OVC015
     FM241900 02010KT P6SM OVC020
     FM242200 02010G15KT P6SM BKN040=

USA.gov is the U.S. government's official web portal to all federal, state and local government web resources and services.